createdAt,value
2023-01-11T00:00:07.073Z,22.00
2023-01-11T00:05:05.247Z,17.70
2023-01-11T00:10:04.420Z,19.20
2023-01-11T00:15:03.563Z,15.50
2023-01-11T00:20:02.726Z,18.90
2023-01-11T00:25:01.960Z,16.30
2023-01-11T00:30:02.100Z,14.40
2023-01-11T00:35:00.267Z,11.00
2023-01-11T00:39:59.414Z,13.10
2023-01-11T00:44:59.560Z,10.30
2023-01-11T00:49:59.909Z,14.90
2023-01-11T00:54:57.085Z,11.70
2023-01-11T00:59:56.273Z,12.90
2023-01-11T01:04:56.451Z,11.90
2023-01-11T01:09:56.606Z,9.50
2023-01-11T01:14:53.774Z,11.60
2023-01-11T01:19:52.956Z,7.80
2023-01-11T01:24:55.235Z,7.70
2023-01-11T01:29:52.351Z,8.60
2023-01-11T01:34:50.697Z,9.80
2023-01-11T01:39:52.102Z,10.50
2023-01-11T01:44:49.051Z,7.80
2023-01-11T01:49:50.209Z,11.80
2023-01-11T01:54:47.401Z,8.30
2023-01-11T01:59:46.519Z,9.40
2023-01-11T02:04:47.881Z,9.70
2023-01-11T02:09:45.026Z,9.20
2023-01-11T02:14:44.197Z,9.10
2023-01-11T02:19:43.305Z,5.80
2023-01-11T02:24:42.646Z,8.70
2023-01-11T02:29:41.814Z,8.10
2023-01-11T02:34:40.966Z,7.60
2023-01-11T02:39:40.101Z,6.20
2023-01-11T02:44:39.280Z,6.80
2023-01-11T02:49:40.416Z,7.00
2023-01-11T02:54:37.578Z,5.80
2023-01-11T02:59:37.707Z,8.10
2023-01-11T03:04:35.866Z,5.70
2023-01-11T03:09:36.029Z,5.80
2023-01-11T03:14:35.296Z,7.70
2023-01-11T03:19:34.574Z,6.70
2023-01-11T03:24:33.795Z,7.10
2023-01-11T03:29:31.932Z,7.00
2023-01-11T03:34:31.084Z,6.20
2023-01-11T03:39:31.246Z,5.80
2023-01-11T03:44:28.483Z,5.70
2023-01-11T03:49:28.648Z,5.10
2023-01-11T03:54:27.779Z,4.80
2023-01-11T03:59:27.104Z,4.70
2023-01-11T21:10:26.018Z,237.80
2023-01-11T21:15:27.287Z,251.40
2023-01-11T21:20:25.563Z,127.30
2023-01-11T21:25:24.851Z,145.60
2023-01-11T21:30:25.148Z,243.10
2023-01-11T21:35:22.431Z,170.00
2023-01-11T21:40:21.710Z,166.60
2023-01-11T21:45:22.075Z,135.70
2023-01-11T21:50:20.220Z,115.50
2023-01-11T21:55:19.340Z,102.10
2023-01-11T22:00:19.637Z,83.10
2023-01-11T22:05:17.968Z,103.90
2023-01-11T22:10:16.291Z,122.60
2023-01-11T22:15:16.491Z,111.80
2023-01-11T22:20:15.604Z,89.50
2023-01-11T22:25:14.890Z,89.30
2023-01-11T22:30:15.162Z,67.40
2023-01-11T22:35:12.433Z,75.60
2023-01-11T22:40:12.698Z,79.00
2023-01-11T22:45:12.985Z,72.90
2023-01-11T22:50:11.284Z,60.30
2023-01-11T22:55:11.576Z,57.80
2023-01-11T23:00:08.858Z,55.20
2023-01-11T23:05:10.153Z,47.00
2023-01-11T23:10:08.440Z,48.50
2023-01-11T23:15:08.723Z,39.80
2023-01-11T23:20:07.988Z,34.90
2023-01-11T23:25:07.299Z,47.70
2023-01-11T23:30:04.588Z,40.50
2023-01-11T23:35:04.868Z,27.10
2023-01-11T23:40:04.140Z,24.90
2023-01-11T23:45:04.387Z,20.90
2023-01-11T23:50:02.676Z,40.70
2023-01-11T23:55:01.937Z,18.40
